createdAt,value
2019-01-26T00:00:44.015Z,52.20
2019-01-26T00:03:12.829Z,56.33
2019-01-26T00:05:42.349Z,51.15
2019-01-26T00:08:10.968Z,56.00
2019-01-26T00:10:39.446Z,53.07
2019-01-26T00:13:07.992Z,53.85
2019-01-26T00:15:36.640Z,51.45
2019-01-26T00:18:05.511Z,48.83
2019-01-26T00:20:36.389Z,50.53
2019-01-26T00:23:04.488Z,52.25
2019-01-26T00:25:32.963Z,50.28
2019-01-26T00:28:01.446Z,53.15
2019-01-26T00:30:30.146Z,53.78
2019-01-26T00:32:58.628Z,52.95
2019-01-26T00:35:30.119Z,47.43
2019-01-26T00:37:58.727Z,55.17
2019-01-26T00:40:27.279Z,51.10
2019-01-26T00:42:55.819Z,54.80
2019-01-26T00:45:25.024Z,51.05
2019-01-26T00:47:53.492Z,51.40
2019-01-26T00:50:22.041Z,49.10
2019-01-26T00:52:50.747Z,52.50
2019-01-26T00:55:19.286Z,50.90
2019-01-26T00:57:47.832Z,53.98
2019-01-26T01:00:21.104Z,49.53
2019-01-26T01:02:49.747Z,53.60
2019-01-26T01:05:18.443Z,48.50
2019-01-26T01:07:48.110Z,47.00
2019-01-26T01:10:18.435Z,50.25
2019-01-26T01:12:47.364Z,49.67
2019-01-26T01:15:18.316Z,49.85
2019-01-26T01:17:46.789Z,49.13
2019-01-26T01:20:15.898Z,49.13
2019-01-26T01:22:44.494Z,52.27
2019-01-26T01:25:14.326Z,51.15
2019-01-26T01:27:42.879Z,51.35
2019-01-26T01:30:14.628Z,47.60
2019-01-26T01:32:43.169Z,47.13
2019-01-26T01:35:11.712Z,47.93
2019-01-26T01:37:40.307Z,50.95
2019-01-26T01:40:11.340Z,50.00
2019-01-26T01:42:40.258Z,51.20
2019-01-26T01:45:14.346Z,49.00
2019-01-26T01:47:44.112Z,52.38
2019-01-26T01:50:13.670Z,44.55
2019-01-26T01:52:43.348Z,45.03
2019-01-26T01:55:12.191Z,48.00
2019-01-26T01:57:40.657Z,48.75
2019-01-26T02:00:15.137Z,51.33
2019-01-26T02:02:43.680Z,47.10
2019-01-26T02:05:12.381Z,48.70
2019-01-26T02:07:41.013Z,47.85
2019-01-26T02:10:13.513Z,42.98
2019-01-26T02:12:42.015Z,44.88
2019-01-26T02:15:12.081Z,50.90
2019-01-26T02:17:40.881Z,45.95
2019-01-26T02:20:12.405Z,47.17
2019-01-26T02:22:40.934Z,51.97
2019-01-26T02:25:09.669Z,52.80
2019-01-26T02:27:38.212Z,49.80
2019-01-26T02:30:10.406Z,49.38
2019-01-26T02:32:38.888Z,49.05
2019-01-26T02:35:07.826Z,47.55
2019-01-26T02:37:36.409Z,50.28
2019-01-26T02:40:08.070Z,49.18
2019-01-26T02:42:36.624Z,43.50
2019-01-26T02:45:07.991Z,44.88
2019-01-26T02:47:36.473Z,49.33
2019-01-26T02:50:08.099Z,45.43
2019-01-26T02:52:36.628Z,46.20
2019-01-26T02:55:06.249Z,49.35
2019-01-26T02:57:34.886Z,41.25
2019-01-26T03:00:05.107Z,47.53
2019-01-26T03:02:34.621Z,46.80
2019-01-26T03:05:03.769Z,50.10
2019-01-26T03:07:32.357Z,48.80
2019-01-26T03:10:00.917Z,50.53
2019-01-26T03:12:30.352Z,47.53
2019-01-26T03:14:58.892Z,52.15
2019-01-26T03:17:27.372Z,47.27
2019-01-26T03:19:55.846Z,46.70
2019-01-26T03:22:24.414Z,47.87
2019-01-26T03:24:52.956Z,47.83
2019-01-26T03:27:21.432Z,53.45
2019-01-26T03:29:49.999Z,50.05
2019-01-26T03:32:18.672Z,47.83
2019-01-26T03:34:48.577Z,50.80
2019-01-26T03:37:17.174Z,46.02
2019-01-26T03:39:45.720Z,45.40
2019-01-26T03:42:15.157Z,44.93
2019-01-26T03:44:43.781Z,49.60
2019-01-26T03:47:18.222Z,48.25
2019-01-26T03:49:46.709Z,46.58
2019-01-26T03:52:15.250Z,47.70
2019-01-26T03:54:43.774Z,49.00
2019-01-26T03:57:12.324Z,46.95
2019-01-26T03:59:40.854Z,49.73
2019-01-26T04:02:09.540Z,50.03
2019-01-26T04:04:38.088Z,50.60
2019-01-26T04:07:06.792Z,53.00
2019-01-26T04:09:35.291Z,48.98
2019-01-26T04:12:03.813Z,48.27
2019-01-26T04:14:33.425Z,47.20
2019-01-26T04:17:01.968Z,45.67
2019-01-26T04:19:30.426Z,51.40
2019-01-26T04:21:58.965Z,45.00
2019-01-26T04:24:27.494Z,49.42
2019-01-26T04:26:55.980Z,51.83
2019-01-26T04:29:24.551Z,57.40
2019-01-26T04:31:53.028Z,59.40
2019-01-26T04:34:21.500Z,54.48
2019-01-26T04:36:50.041Z,48.40
2019-01-26T04:39:18.513Z,47.98
2019-01-26T04:41:46.972Z,48.10
2019-01-26T04:44:15.507Z,44.85
2019-01-26T04:46:44.050Z,50.27
2019-01-26T04:49:12.525Z,46.58
2019-01-26T04:51:41.092Z,52.37
2019-01-26T04:54:09.631Z,65.45
2019-01-26T04:56:38.175Z,51.73
2019-01-26T04:59:06.735Z,43.13
2019-01-26T05:01:35.233Z,54.37
2019-01-26T05:04:03.977Z,67.13
2019-01-26T05:06:32.506Z,48.80
2019-01-26T05:09:01.995Z,46.93
2019-01-26T05:11:30.453Z,48.07
2019-01-26T05:13:58.973Z,48.43
2019-01-26T05:16:28.417Z,42.03
2019-01-26T05:18:57.046Z,42.35
2019-01-26T05:21:25.978Z,43.50
2019-01-26T05:23:54.443Z,45.90
2019-01-26T05:26:22.982Z,40.97
2019-01-26T05:28:51.524Z,42.87
2019-01-26T05:31:19.995Z,42.87
2019-01-26T05:33:48.474Z,39.97
2019-01-26T05:36:17.197Z,39.17
2019-01-26T05:38:45.667Z,36.00
2019-01-26T05:41:14.133Z,40.27
2019-01-26T05:43:42.863Z,37.47
2019-01-26T05:46:11.326Z,42.83
2019-01-26T05:48:39.803Z,44.23
2019-01-26T05:51:08.320Z,38.00
2019-01-26T05:53:36.864Z,44.38
2019-01-26T05:56:05.568Z,40.87
2019-01-26T05:58:34.112Z,41.23
2019-01-26T06:01:02.594Z,33.73
2019-01-26T06:03:32.005Z,37.33
2019-01-26T06:06:01.481Z,40.50
2019-01-26T06:08:29.948Z,39.90
2019-01-26T06:10:58.499Z,37.00
2019-01-26T06:13:27.019Z,36.97
2019-01-26T06:15:55.499Z,37.33
2019-01-26T06:18:25.823Z,36.90
2019-01-26T06:20:54.343Z,38.03
2019-01-26T06:23:22.856Z,40.92
2019-01-26T06:25:51.349Z,42.17
2019-01-26T06:28:19.941Z,44.47
2019-01-26T06:30:48.482Z,43.90
2019-01-26T06:33:16.956Z,46.00
2019-01-26T06:35:45.487Z,42.75
2019-01-26T06:38:14.085Z,48.40
2019-01-26T06:40:42.583Z,44.60
2019-01-26T06:43:11.114Z,42.47
2019-01-26T06:45:39.600Z,46.55
2019-01-26T06:48:08.140Z,39.33
2019-01-26T06:50:36.741Z,41.37
2019-01-26T06:53:05.371Z,40.23
2019-01-26T06:55:33.901Z,41.73
2019-01-26T06:58:02.446Z,45.10
2019-01-26T07:00:31.298Z,43.37
2019-01-26T07:03:00.104Z,39.10
2019-01-26T07:05:33.143Z,45.43
2019-01-26T07:08:01.613Z,42.20
2019-01-26T07:10:30.146Z,39.33
2019-01-26T07:12:58.777Z,39.40
2019-01-26T07:15:27.247Z,43.57
2019-01-26T07:17:56.854Z,37.63
2019-01-26T07:20:26.395Z,41.67
2019-01-26T07:22:54.867Z,38.50
2019-01-26T07:25:23.418Z,57.43
2019-01-26T07:27:52.005Z,44.10
2019-01-26T07:30:22.678Z,38.43
2019-01-26T07:32:51.354Z,41.10
2019-01-26T07:35:20.013Z,40.57
2019-01-26T07:37:48.551Z,40.83
2019-01-26T07:40:22.158Z,43.83
2019-01-26T07:42:52.007Z,39.53
2019-01-26T07:45:20.831Z,47.07
2019-01-26T07:47:49.365Z,47.33
2019-01-26T07:50:23.446Z,45.37
2019-01-26T07:52:51.978Z,44.93
2019-01-26T07:55:20.585Z,41.90
2019-01-26T07:57:49.332Z,35.93
2019-01-26T08:00:23.422Z,39.10
2019-01-26T08:02:52.102Z,38.93
2019-01-26T08:05:20.875Z,42.67
2019-01-26T08:07:49.608Z,46.03
2019-01-26T08:10:20.949Z,49.40
2019-01-26T08:12:50.236Z,49.63
2019-01-26T08:15:21.588Z,43.20
2019-01-26T08:17:50.117Z,48.70
2019-01-26T08:20:20.683Z,35.20
2019-01-26T08:22:50.093Z,40.07
2019-01-26T08:25:31.350Z,46.03
2019-01-26T08:28:07.517Z,44.20
2019-01-26T08:30:36.178Z,49.85
2019-01-26T08:33:04.994Z,44.07
2019-01-26T08:35:33.535Z,48.43
2019-01-26T08:38:02.554Z,47.90
2019-01-26T08:40:31.017Z,50.07
2019-01-26T08:42:59.661Z,42.60
2019-01-26T08:45:28.246Z,36.93
2019-01-26T08:47:56.721Z,38.47
2019-01-26T08:50:25.647Z,35.20
2019-01-26T08:52:54.259Z,41.30
2019-01-26T08:55:23.158Z,41.27
2019-01-26T08:57:51.877Z,34.87
2019-01-26T09:00:22.606Z,37.07
2019-01-26T09:02:54.046Z,38.23
2019-01-26T09:05:27.585Z,36.63
2019-01-26T09:07:56.048Z,36.87
2019-01-26T09:10:24.516Z,39.40
2019-01-26T09:12:53.134Z,35.73
2019-01-26T09:15:22.503Z,38.27
2019-01-26T09:17:51.041Z,34.63
2019-01-26T09:20:19.560Z,38.03
2019-01-26T09:22:48.029Z,38.40
2019-01-26T09:25:17.430Z,38.03
2019-01-26T09:27:46.326Z,39.03
2019-01-26T09:30:23.344Z,36.60
2019-01-26T09:32:52.009Z,39.40
2019-01-26T09:35:20.484Z,38.90
2019-01-26T09:37:49.162Z,35.93
2019-01-26T09:40:20.191Z,41.80
2019-01-26T09:42:49.876Z,36.00
2019-01-26T09:45:19.807Z,39.83
2019-01-26T09:47:48.605Z,46.70
2019-01-26T09:50:17.911Z,50.27
2019-01-26T09:52:46.370Z,39.77
2019-01-26T09:55:19.829Z,46.67
2019-01-26T09:57:48.384Z,38.40
2019-01-26T10:00:19.505Z,39.33
2019-01-26T10:02:48.098Z,37.53
2019-01-26T10:05:17.014Z,38.03
2019-01-26T10:07:45.502Z,43.70
2019-01-26T10:10:15.709Z,49.40
2019-01-26T10:12:44.547Z,44.87
2019-01-26T10:15:22.195Z,41.10
2019-01-26T10:17:50.935Z,41.67
2019-01-26T10:20:22.384Z,42.40
2019-01-26T10:22:50.980Z,41.23
2019-01-26T10:25:19.783Z,46.80
2019-01-26T10:27:48.550Z,46.03
2019-01-26T10:30:33.745Z,51.75
2019-01-26T10:33:02.287Z,45.87
2019-01-26T10:35:44.913Z,46.97
2019-01-26T10:38:13.447Z,49.43
2019-01-26T10:40:43.775Z,51.27
2019-01-26T10:43:13.946Z,50.07
2019-01-26T10:45:42.473Z,47.97
2019-01-26T10:48:10.932Z,59.33
2019-01-26T10:50:39.461Z,59.43
2019-01-26T10:53:07.942Z,56.43
2019-01-26T10:55:36.401Z,52.67
2019-01-26T10:58:05.357Z,56.10
2019-01-26T11:00:33.974Z,56.70
2019-01-26T11:03:02.585Z,59.27
2019-01-26T11:05:32.164Z,58.27
2019-01-26T11:08:06.011Z,54.73
2019-01-26T11:10:34.731Z,57.17
2019-01-26T11:13:06.062Z,53.03
2019-01-26T11:15:34.663Z,55.20
2019-01-26T11:18:04.646Z,57.63
2019-01-26T11:20:33.240Z,64.00
2019-01-26T11:23:01.717Z,65.57
2019-01-26T11:25:30.243Z,59.50
2019-01-26T11:27:58.782Z,55.10
2019-01-26T11:30:29.058Z,55.97
2019-01-26T11:32:57.627Z,54.70
2019-01-26T11:35:26.534Z,51.30
2019-01-26T11:37:55.093Z,61.03
2019-01-26T11:40:23.662Z,65.73
2019-01-26T11:42:52.510Z,66.10
2019-01-26T11:45:22.894Z,70.43
2019-01-26T11:47:51.652Z,74.77
2019-01-26T11:50:21.882Z,73.57
2019-01-26T11:52:50.417Z,77.30
2019-01-26T11:55:33.017Z,73.30
2019-01-26T11:58:01.496Z,67.73
2019-01-26T12:00:31.765Z,74.30
2019-01-26T12:03:03.523Z,68.13
2019-01-26T12:05:35.186Z,74.17
2019-01-26T12:08:03.966Z,71.30
2019-01-26T12:10:32.684Z,66.93
2019-01-26T12:13:01.235Z,65.77
2019-01-26T12:15:30.717Z,73.27
2019-01-26T12:17:59.332Z,65.80
2019-01-26T12:20:27.867Z,58.17
2019-01-26T12:22:56.421Z,54.27
2019-01-26T12:25:25.086Z,52.37
2019-01-26T12:27:53.624Z,54.40
2019-01-26T12:30:22.085Z,54.40
2019-01-26T12:32:51.546Z,45.03
2019-01-26T12:35:20.109Z,45.33
2019-01-26T12:37:48.724Z,46.17
2019-01-26T12:40:17.275Z,45.40
2019-01-26T12:42:45.869Z,51.63
2019-01-26T12:45:20.535Z,52.00
2019-01-26T12:47:49.102Z,73.67
2019-01-26T12:50:18.863Z,58.73
2019-01-26T12:52:47.609Z,77.93
2019-01-26T12:55:17.762Z,83.80
2019-01-26T12:57:46.372Z,83.80
2019-01-26T13:00:20.625Z,83.35
2019-01-26T13:02:49.473Z,57.30
2019-01-26T13:05:18.272Z,55.23
2019-01-26T13:07:47.080Z,53.93
2019-01-26T13:10:36.860Z,51.90
2019-01-26T13:13:06.273Z,51.20
2019-01-26T13:15:34.932Z,51.77
2019-01-26T13:18:03.912Z,53.30
2019-01-26T13:20:32.677Z,52.60
2019-01-26T13:23:01.212Z,47.03
2019-01-26T13:25:29.801Z,46.67
2019-01-26T13:27:58.280Z,45.50
2019-01-26T13:30:26.743Z,44.93
2019-01-26T13:32:55.340Z,41.57
2019-01-26T13:35:24.113Z,51.13
2019-01-26T13:37:52.673Z,49.20
2019-01-26T13:40:28.029Z,45.70
2019-01-26T13:42:56.644Z,45.43
2019-01-26T13:45:25.186Z,45.27
2019-01-26T13:47:53.848Z,48.00
2019-01-26T13:50:22.305Z,37.90
2019-01-26T13:52:50.774Z,46.77
2019-01-26T13:55:21.146Z,56.67
2019-01-26T13:57:50.109Z,50.60
2019-01-26T14:00:33.788Z,54.10
2019-01-26T14:03:03.429Z,55.27
2019-01-26T14:05:31.899Z,54.37
2019-01-26T14:08:00.539Z,52.33
2019-01-26T14:10:30.079Z,50.33
2019-01-26T14:12:58.656Z,57.57
2019-01-26T14:15:27.197Z,54.93
2019-01-26T14:17:55.836Z,53.57
2019-01-26T14:20:25.846Z,50.20
2019-01-26T14:22:54.504Z,51.57
2019-01-26T14:25:23.514Z,60.90
2019-01-26T14:27:52.133Z,43.03
2019-01-26T14:30:36.017Z,43.07
2019-01-26T14:33:04.932Z,49.53
2019-01-26T14:35:33.483Z,50.87
2019-01-26T14:38:03.060Z,55.83
2019-01-26T14:40:31.775Z,64.97
2019-01-26T14:43:00.442Z,64.20
2019-01-26T14:45:29.341Z,66.20
2019-01-26T14:47:57.971Z,65.70
2019-01-26T14:50:26.526Z,71.50
2019-01-26T14:52:55.232Z,61.90
2019-01-26T14:55:26.147Z,65.93
2019-01-26T14:57:54.708Z,68.53
2019-01-26T15:00:31.740Z,63.40
2019-01-26T15:03:00.506Z,66.27
2019-01-26T15:05:29.621Z,74.37
2019-01-26T15:07:58.403Z,82.17
2019-01-26T15:10:27.209Z,79.40
2019-01-26T15:12:55.677Z,73.63
2019-01-26T15:15:24.578Z,71.10
2019-01-26T15:17:53.118Z,73.70
2019-01-26T15:20:24.251Z,102.40
2019-01-26T15:22:52.770Z,83.20
2019-01-26T15:25:21.385Z,83.07
2019-01-26T15:27:50.971Z,83.03
2019-01-26T15:30:25.001Z,80.97
2019-01-26T15:32:53.615Z,84.13
2019-01-26T15:35:22.182Z,86.60
2019-01-26T15:37:50.711Z,91.40
2019-01-26T15:40:20.313Z,89.80
2019-01-26T15:42:48.841Z,93.73
2019-01-26T15:45:23.212Z,89.03
2019-01-26T15:47:51.824Z,84.10
2019-01-26T15:50:20.459Z,98.40
2019-01-26T15:52:49.000Z,109.97
2019-01-26T15:55:20.518Z,130.73
2019-01-26T15:57:49.226Z,140.40
2019-01-26T16:00:23.274Z,166.53
2019-01-26T16:02:51.842Z,173.17
2019-01-26T16:05:20.675Z,177.53
2019-01-26T16:07:49.324Z,196.50
2019-01-26T16:10:25.004Z,184.73
2019-01-26T16:12:53.722Z,206.90
2019-01-26T16:15:27.373Z,208.80
2019-01-26T16:17:56.092Z,208.13
2019-01-26T16:20:24.915Z,199.73
2019-01-26T16:22:53.700Z,221.87
2019-01-26T16:25:22.396Z,198.07
2019-01-26T16:27:50.942Z,199.77
2019-01-26T16:30:25.097Z,201.27
2019-01-26T16:32:53.594Z,193.10
2019-01-26T16:35:22.137Z,218.57
2019-01-26T16:37:50.743Z,229.53
2019-01-26T16:40:21.557Z,221.90
2019-01-26T16:42:50.356Z,219.00
2019-01-26T16:45:24.600Z,181.03
2019-01-26T16:47:53.212Z,168.87
2019-01-26T16:50:27.685Z,175.90
2019-01-26T16:52:54.492Z,172.57
2019-01-26T16:55:23.315Z,163.40
2019-01-26T16:57:51.806Z,161.70
2019-01-26T17:00:23.401Z,165.90
2019-01-26T17:02:52.043Z,153.03
2019-01-26T17:05:25.765Z,148.53
2019-01-26T17:07:50.990Z,154.20
2019-01-26T17:10:20.898Z,147.40
2019-01-26T17:12:49.547Z,147.40
2019-01-26T17:15:18.224Z,139.43
2019-01-26T17:17:46.890Z,155.37
2019-01-26T17:20:21.398Z,166.70
2019-01-26T17:22:50.047Z,178.20
2019-01-26T17:25:18.697Z,158.10
2019-01-26T17:27:47.173Z,153.67
2019-01-26T17:30:18.757Z,162.23
2019-01-26T17:32:47.385Z,144.73
2019-01-26T17:35:15.942Z,142.40
2019-01-26T17:37:44.730Z,133.23
2019-01-26T17:40:15.840Z,139.40
2019-01-26T17:42:44.380Z,152.20
2019-01-26T17:45:15.940Z,145.97
2019-01-26T17:47:44.546Z,137.10
2019-01-26T17:50:21.881Z,125.37
2019-01-26T17:52:50.456Z,134.37
2019-01-26T17:55:18.998Z,129.77
2019-01-26T17:57:47.667Z,117.97
2019-01-26T18:00:44.229Z,125.00
2019-01-26T18:03:13.383Z,127.80
2019-01-26T18:05:41.953Z,117.37
2019-01-26T18:08:11.460Z,104.67
2019-01-26T18:10:40.837Z,104.70
2019-01-26T18:13:09.462Z,96.80
2019-01-26T18:15:38.073Z,103.03
2019-01-26T18:18:06.673Z,101.93
2019-01-26T18:20:35.228Z,102.27
2019-01-26T18:23:03.829Z,95.77
2019-01-26T18:25:34.264Z,107.93
2019-01-26T18:28:02.877Z,98.80
2019-01-26T18:30:34.789Z,132.20
2019-01-26T18:33:03.388Z,95.10
2019-01-26T18:35:31.925Z,81.37
2019-01-26T18:38:00.695Z,76.13
2019-01-26T18:40:30.324Z,82.73
2019-01-26T18:42:59.083Z,76.97
2019-01-26T18:45:31.382Z,76.63
2019-01-26T18:48:00.953Z,71.93
2019-01-26T18:50:35.321Z,80.90
2019-01-26T18:53:04.258Z,77.63
2019-01-26T18:55:32.995Z,97.20
2019-01-26T18:58:03.106Z,138.67
2019-01-26T19:00:37.472Z,114.00
2019-01-26T19:03:15.319Z,104.53
2019-01-26T19:05:43.877Z,117.77
2019-01-26T19:08:12.346Z,113.53
2019-01-26T19:10:40.900Z,104.47
2019-01-26T19:13:09.451Z,105.30
2019-01-26T19:15:39.534Z,114.47
2019-01-26T19:18:08.152Z,111.70
2019-01-26T19:20:36.745Z,114.70
2019-01-26T19:23:05.581Z,113.83
2019-01-26T19:25:34.116Z,127.00
2019-01-26T19:28:02.598Z,129.77
2019-01-26T19:30:31.144Z,116.90
2019-01-26T19:32:59.909Z,128.87
2019-01-26T19:35:28.382Z,129.87
2019-01-26T19:37:56.869Z,132.57
2019-01-26T19:40:27.432Z,124.67
2019-01-26T19:42:55.936Z,129.37
2019-01-26T19:45:25.004Z,137.10
2019-01-26T19:47:53.702Z,126.03
2019-01-26T19:50:26.460Z,118.87
2019-01-26T19:52:55.015Z,115.87
2019-01-26T19:55:24.370Z,123.80
2019-01-26T19:57:52.916Z,132.17
2019-01-26T20:00:21.731Z,130.90
2019-01-26T20:02:51.534Z,133.20
2019-01-26T20:05:22.054Z,139.30
2019-01-26T20:07:50.790Z,163.77
2019-01-26T20:10:19.981Z,176.20
2019-01-26T20:12:48.689Z,161.50
2019-01-26T20:15:22.100Z,172.40
2019-01-26T20:17:50.977Z,185.53
2019-01-26T20:20:22.499Z,249.53
2019-01-26T20:22:51.239Z,212.13
2019-01-26T20:25:20.007Z,171.83
2019-01-26T20:27:48.624Z,166.70
2019-01-26T20:30:20.536Z,156.80
2019-01-26T20:32:50.098Z,202.07
2019-01-26T20:35:18.673Z,178.63
2019-01-26T20:37:47.226Z,156.63
2019-01-26T20:40:18.397Z,143.33
2019-01-26T20:42:47.050Z,139.53
2019-01-26T20:45:20.831Z,151.87
2019-01-26T20:47:49.417Z,138.30
2019-01-26T20:50:17.989Z,134.57
2019-01-26T20:52:46.602Z,131.87
2019-01-26T20:55:15.278Z,107.83
2019-01-26T20:57:44.011Z,107.07
2019-01-26T21:00:18.260Z,114.47
2019-01-26T21:02:46.842Z,140.70
2019-01-26T21:05:16.249Z,126.60
2019-01-26T21:07:44.814Z,142.67
2019-01-26T21:10:26.043Z,141.33
2019-01-26T21:12:54.744Z,134.33
2019-01-26T21:15:23.672Z,128.97
2019-01-26T21:17:52.264Z,139.90
2019-01-26T21:20:22.875Z,147.43
2019-01-26T21:22:51.533Z,133.70
2019-01-26T21:25:20.179Z,143.63
2019-01-26T21:27:48.997Z,144.83
2019-01-26T21:30:20.318Z,139.07
2019-01-26T21:32:48.999Z,129.10
2019-01-26T21:35:22.841Z,125.40
2019-01-26T21:37:51.442Z,123.03
2019-01-26T21:40:22.217Z,119.13
2019-01-26T21:42:50.780Z,120.60
2019-01-26T21:45:19.743Z,118.60
2019-01-26T21:47:48.451Z,117.10
2019-01-26T21:50:19.760Z,105.10
2019-01-26T21:52:48.469Z,107.60
2019-01-26T21:55:18.015Z,95.30
2019-01-26T21:57:46.556Z,92.27
2019-01-26T22:00:23.299Z,89.23
2019-01-26T22:02:52.023Z,101.03
2019-01-26T22:05:20.509Z,86.17
2019-01-26T22:07:49.351Z,94.87
2019-01-26T22:10:25.900Z,82.70
2019-01-26T22:12:54.640Z,82.57
2019-01-26T22:15:24.249Z,84.13
2019-01-26T22:17:52.985Z,83.63
2019-01-26T22:20:23.678Z,85.67
2019-01-26T22:22:52.806Z,96.80
2019-01-26T22:25:21.621Z,111.07
2019-01-26T22:27:50.324Z,115.03
2019-01-26T22:30:24.647Z,142.07
2019-01-26T22:32:53.201Z,148.93
2019-01-26T22:35:22.273Z,157.50
2019-01-26T22:37:50.756Z,142.97
2019-01-26T22:40:27.680Z,138.50
2019-01-26T22:42:56.246Z,132.43
2019-01-26T22:45:26.994Z,121.17
2019-01-26T22:47:55.709Z,95.40
2019-01-26T22:50:26.023Z,86.73
2019-01-26T22:52:55.051Z,81.47
2019-01-26T22:55:23.913Z,72.23
2019-01-26T22:57:53.443Z,66.50
2019-01-26T23:00:38.505Z,68.27
2019-01-26T23:03:09.876Z,62.30
2019-01-26T23:06:05.782Z,61.77
2019-01-26T23:08:35.818Z,62.40
2019-01-26T23:11:25.729Z,70.20
2019-01-26T23:13:57.258Z,65.50
2019-01-26T23:16:44.079Z,59.80
2019-01-26T23:19:24.773Z,62.43
2019-01-26T23:22:15.360Z,66.47
2019-01-26T23:24:53.103Z,61.83
2019-01-26T23:27:27.613Z,59.30
2019-01-26T23:30:32.345Z,56.43
2019-01-26T23:33:00.962Z,50.83
2019-01-26T23:35:29.517Z,54.00
